Portland, Oregon
Traffic Map
Current Weather Conditions
Portland, Oregon
Overcast
Overcast
27°
Feels Like: 27°
Wind Chill: 27° Ceiling: 5000
Heat Index: 27° Visibility: 10mi
Dew Point: Wind: 7mph
Humidity: 22% Direction: 120° (ESE)
Pressure: 29.79in Gusts: 0mph
Raw Report DataKPDX 150153Z 12006KT 10SM OVC050 27/04 A2979 RMK AO2 SLP087 FU OVC050 T02720039
Traffic Incident Summary
Active as of:
Severity:
Category:
InformationThere was an issue retrieving the traffic information for this location. Please try a different location or try again shortly.
Advertisements
Track Severe Weather on mobile